Flugplatz Braunschweig Wolfsburg

Bericht für EDVE

vom 11.07. um 08:20 UTC

variable Windrichtung mit 6 kt

Sichtweite 10 km oder mehr

gering bewölkt in 2300 ft

Temperatur 16.0°C

Taupunkt 8.0°C

Luftfeuchtigkeit 59%

Luftdruck 1022 hPa

EDVE 110820Z VRB06KT 9999 FEW023 16/08 Q1022

Prognose für EDVE

vom 11.07. um 08:00 UTC

Zwischen 09:00 UTC und 18:00 UTC

Wind 8 kt aus 310°

Sichtweite 10 km oder mehr

gering bewölkt in 4000 ft


Zwischen 12:00 UTC und 17:00 UTC zeitweise mit einer Wahrscheinlichkeit von 30%

Regenschauer

aufgelockert bewölkt in 3000 ft

TAF EDVE 110800Z 1109/1118 31008KT 9999 FEW040 PROB30 TEMPO 1112/1117 SHRA SCT030CB
Impressum